Time;durP1;ratioP1;P1;durP2;ratioP2;P2;SDS_P1;SDS_P2;PMS_P1;PMS_P2;Temp;Humidity;BMP_temperature;BMP_pressure;BME280_temperature;BME280_humidity;BME280_pressure;Samples;Min_cycle;Max_cycle;Signal;HPM_P1;HPM_P2
2022/05/15 03:01:04;;;;;;;0.50;0.50;;;26.40;46.60;;;;;;5682421;23;45934;-61
2022/05/15 03:03:30;;;;;;;0.70;0.52;;;26.40;46.60;;;;;;4937913;28;45426;-63
2022/05/15 03:05:56;;;;;;;1.20;0.50;;;26.40;46.60;;;;;;4958132;28;45221;-61
2022/05/15 03:08:21;;;;;;;0.85;0.55;;;26.30;46.50;;;;;;4941087;28;46573;-61
2022/05/15 03:10:47;;;;;;;0.60;0.50;;;26.40;46.60;;;;;;4956482;28;45308;-61
2022/05/15 03:13:13;;;;;;;0.88;0.65;;;26.40;47.20;;;;;;4958346;28;46485;-62
2022/05/15 03:15:38;;;;;;;0.65;0.65;;;26.30;46.50;;;;;;4958593;28;44884;-62
2022/05/15 03:18:05;;;;;;;0.50;0.50;;;26.30;46.50;;;;;;4958648;28;46074;-62
2022/05/15 03:20:30;;;;;;;0.73;0.60;;;26.30;46.50;;;;;;4952930;28;44950;-61
2022/05/15 03:22:57;;;;;;;0.57;0.57;;;26.30;46.60;;;;;;4930315;28;45502;-63
2022/05/15 03:25:24;;;;;;;0.50;0.50;;;26.30;46.60;;;;;;4961328;28;45216;-62
2022/05/15 03:27:50;;;;;;;0.73;0.63;;;26.30;46.60;;;;;;4979805;28;45294;-61
2022/05/15 03:30:16;;;;;;;0.90;0.70;;;26.30;46.60;;;;;;4975214;28;45490;-62
2022/05/15 03:32:42;;;;;;;0.35;0.35;;;26.30;46.60;;;;;;4942268;28;45167;-63
2022/05/15 03:35:08;;;;;;;0.60;0.60;;;26.30;46.70;;;;;;4942508;28;45114;-62
2022/05/15 03:37:34;;;;;;;0.77;0.57;;;26.30;46.70;;;;;;4959471;28;46430;-62
2022/05/15 03:40:00;;;;;;;0.60;0.55;;;26.30;46.70;;;;;;4976507;28;45126;-62
2022/05/15 03:42:26;;;;;;;0.75;0.73;;;26.30;46.70;;;;;;4954407;28;44927;-61
2022/05/15 03:44:52;;;;;;;0.95;0.65;;;26.30;46.70;;;;;;4952382;28;45233;-61
2022/05/15 03:47:18;;;;;;;1.05;0.43;;;26.30;46.80;;;;;;4949609;28;45287;-61
2022/05/15 03:49:44;;;;;;;0.60;0.60;;;26.30;46.70;;;;;;4953843;28;44925;-61
2022/05/15 03:52:09;;;;;;;0.52;0.52;;;26.30;46.70;;;;;;4974011;28;45513;-60
2022/05/15 03:54:35;;;;;;;0.75;0.75;;;26.30;46.70;;;;;;4958262;28;44737;-62
2022/05/15 03:57:01;;;;;;;0.85;0.52;;;26.30;46.80;;;;;;4974552;28;46406;-62
2022/05/15 03:59:31;;;;;;;1.00;0.60;;;26.20;46.70;;;;;;4952267;28;45483;-62
2022/05/15 04:01:58;;;;;;;1.35;0.60;;;26.30;46.80;;;;;;4958164;28;45229;-62
2022/05/15 04:04:23;;;;;;;0.60;0.60;;;26.30;46.80;;;;;;4957164;28;46867;-62
2022/05/15 04:06:49;;;;;;;0.95;0.60;;;26.20;46.70;;;;;;4954306;28;45360;-62
2022/05/15 04:09:15;;;;;;;0.90;0.65;;;26.20;46.70;;;;;;4975473;28;45286;-62
2022/05/15 04:11:41;;;;;;;0.50;0.50;;;26.20;46.80;;;;;;4973929;28;44748;-62
2022/05/15 04:14:07;;;;;;;0.63;0.52;;;26.20;46.80;;;;;;4962440;28;45229;-62
2022/05/15 04:16:32;;;;;;;0.40;0.40;;;26.30;46.90;;;;;;4960508;28;46655;-62
2022/05/15 04:18:58;;;;;;;0.40;0.40;;;26.20;46.80;;;;;;4957803;28;45374;-62
2022/05/15 04:21:24;;;;;;;0.90;0.70;;;26.20;46.80;;;;;;4973668;28;45214;-62
2022/05/15 04:23:50;;;;;;;0.47;0.47;;;26.20;46.80;;;;;;4938956;28;45189;-62
2022/05/15 04:26:15;;;;;;;0.68;0.57;;;26.20;46.80;;;;;;4959431;28;46105;-62
2022/05/15 04:28:41;;;;;;;0.70;0.60;;;26.20;46.80;;;;;;4976139;28;45347;-62
2022/05/15 04:31:07;;;;;;;0.93;0.60;;;26.20;46.80;;;;;;4957229;28;45009;-62
2022/05/15 04:33:34;;;;;;;0.85;0.70;;;26.20;46.80;;;;;;4938745;28;45235;-62
2022/05/15 04:36:00;;;;;;;0.52;0.40;;;26.20;46.80;;;;;;4939606;28;47753;-61
2022/05/15 04:38:26;;;;;;;0.57;0.40;;;26.20;46.80;;;;;;4976877;28;45204;-61
2022/05/15 04:40:52;;;;;;;1.27;0.80;;;26.20;46.80;;;;;;4941840;28;45102;-60
2022/05/15 04:43:18;;;;;;;0.70;0.70;;;26.20;46.90;;;;;;4974241;28;45294;-61
2022/05/15 04:45:43;;;;;;;0.57;0.50;;;26.20;46.90;;;;;;4961374;28;47141;-62
2022/05/15 04:48:10;;;;;;;0.57;0.50;;;26.20;46.90;;;;;;4982690;28;45225;-61
2022/05/15 04:50:37;;;;;;;0.80;0.68;;;26.20;46.80;;;;;;4962183;28;45274;-61
2022/05/15 04:53:04;;;;;;;0.50;0.50;;;26.20;46.90;;;;;;4975227;28;44732;-61
2022/05/15 04:55:30;;;;;;;0.50;0.50;;;26.10;46.80;;;;;;4974588;28;45955;-62
2022/05/15 04:57:55;;;;;;;0.73;0.50;;;26.10;46.80;;;;;;4976955;28;45121;-62
2022/05/15 05:00:21;;;;;;;0.93;0.70;;;26.10;46.90;;;;;;4957403;28;44917;-61
2022/05/15 05:02:46;;;;;;;0.82;0.60;;;26.20;46.90;;;;;;4958213;28;45327;-61
2022/05/15 05:05:12;;;;;;;0.57;0.50;;;26.20;46.90;;;;;;4943401;28;45447;-62
2022/05/15 05:07:38;;;;;;;0.52;0.52;;;26.10;46.90;;;;;;4961802;28;45076;-62
2022/05/15 05:10:05;;;;;;;0.85;0.63;;;26.10;46.80;;;;;;4960599;28;45460;-63
2022/05/15 05:12:31;;;;;;;0.55;0.55;;;26.10;46.90;;;;;;4959223;28;45360;-62
2022/05/15 05:14:58;;;;;;;0.65;0.65;;;26.10;46.80;;;;;;4943784;28;46249;-61
2022/05/15 05:17:24;;;;;;;0.63;0.63;;;26.10;46.80;;;;;;4974918;28;45319;-62
2022/05/15 05:19:50;;;;;;;0.75;0.60;;;26.10;46.70;;;;;;4977912;28;45093;-61
2022/05/15 05:22:15;;;;;;;1.02;0.60;;;26.20;46.80;;;;;;4976389;28;45254;-62
2022/05/15 05:24:41;;;;;;;1.00;0.55;;;26.20;46.80;;;;;;4953757;28;48489;-62
2022/05/15 05:27:06;;;;;;;0.75;0.73;;;26.20;46.80;;;;;;4976934;28;45466;-62
2022/05/15 05:29:32;;;;;;;0.88;0.65;;;26.20;46.80;;;;;;4966355;28;45270;-62
2022/05/15 05:31:57;;;;;;;0.82;0.75;;;26.20;46.70;;;;;;4976106;28;44702;-61
2022/05/15 05:34:23;;;;;;;0.50;0.50;;;26.20;46.60;;;;;;4976483;28;46165;-62
2022/05/15 05:36:49;;;;;;;0.50;0.50;;;26.30;46.60;;;;;;4957458;28;45274;-62
2022/05/15 05:39:14;;;;;;;0.90;0.65;;;26.30;46.60;;;;;;4963590;28;45301;-62
2022/05/15 05:41:40;;;;;;;0.75;0.50;;;26.30;46.70;;;;;;4942792;28;44979;-62
2022/05/15 05:44:06;;;;;;;0.82;0.60;;;26.20;46.60;;;;;;4977439;28;45167;-62
2022/05/15 05:46:31;;;;;;;0.60;0.60;;;26.20;46.60;;;;;;4959328;28;45155;-61
2022/05/15 05:48:57;;;;;;;0.50;0.40;;;26.20;46.70;;;;;;4946727;28;45174;-62
2022/05/15 05:51:23;;;;;;;0.77;0.68;;;26.20;46.80;;;;;;4956641;28;45128;-62
2022/05/15 05:53:48;;;;;;;1.13;0.70;;;26.20;46.80;;;;;;4973907;28;46178;-61
2022/05/15 05:56:14;;;;;;;0.80;0.60;;;26.20;46.80;;;;;;4978011;28;45588;-62
2022/05/15 05:58:40;;;;;;;0.60;0.50;;;26.20;46.80;;;;;;4944267;28;45265;-62
2022/05/15 06:01:06;;;;;;;0.43;0.43;;;26.20;46.80;;;;;;4959529;28;45222;-62
2022/05/15 06:06:16;;;;;;;0.73;0.63;;;26.20;46.80;;;;;;4962765;28;45831;-62
2022/05/15 06:08:42;;;;;;;0.50;0.50;;;26.30;46.80;;;;;;4943618;28;45284;-61
2022/05/15 06:11:09;;;;;;;0.80;0.65;;;26.30;46.70;;;;;;4957473;28;45209;-62
2022/05/15 06:13:35;;;;;;;1.15;0.73;;;26.30;46.70;;;;;;4959716;28;45180;-62
2022/05/15 06:16:01;;;;;;;0.50;0.50;;;26.30;46.70;;;;;;4946217;28;45491;-62
2022/05/15 06:18:27;;;;;;;0.70;0.70;;;26.30;46.70;;;;;;4973033;28;45184;-63
2022/05/15 06:20:52;;;;;;;0.80;0.70;;;26.30;46.70;;;;;;4976084;28;45138;-63
2022/05/15 06:23:18;;;;;;;0.50;0.50;;;26.30;46.70;;;;;;4958140;28;45362;-62
2022/05/15 06:25:44;;;;;;;0.70;0.70;;;26.30;46.60;;;;;;4957357;28;45443;-62
2022/05/15 06:28:10;;;;;;;0.60;0.57;;;26.40;46.60;;;;;;4978558;28;44716;-62
2022/05/15 06:30:36;;;;;;;0.43;0.43;;;26.40;46.60;;;;;;4976198;28;44880;-62
2022/05/15 06:33:03;;;;;;;0.70;0.70;;;26.40;46.50;;;;;;4944860;28;45547;-62
2022/05/15 06:35:29;;;;;;;1.60;0.70;;;26.40;46.50;;;;;;4944071;28;45290;-62
2022/05/15 06:37:54;;;;;;;0.60;0.60;;;26.40;46.40;;;;;;4958852;28;44928;-63
2022/05/15 06:40:20;;;;;;;0.73;0.73;;;26.50;46.40;;;;;;4974934;28;44803;-62
2022/05/15 06:42:46;;;;;;;0.47;0.40;;;26.50;46.30;;;;;;4976209;28;45558;-62
2022/05/15 06:45:12;;;;;;;0.70;0.70;;;26.60;46.30;;;;;;4976880;28;45216;-62
2022/05/15 06:47:38;;;;;;;0.63;0.60;;;26.60;46.30;;;;;;4954514;28;45275;-62
2022/05/15 06:50:05;;;;;;;0.63;0.63;;;26.70;46.20;;;;;;4934159;28;45434;-62
2022/05/15 06:52:31;;;;;;;0.40;0.40;;;26.70;46.10;;;;;;4954442;28;45586;-62
2022/05/15 06:54:56;;;;;;;0.70;0.70;;;26.70;46.00;;;;;;4968268;28;45338;-62
2022/05/15 06:57:28;;;;;;;1.20;0.70;;;26.80;45.90;;;;;;4971617;28;45235;-62
2022/05/15 06:59:54;;;;;;;0.90;0.77;;;26.80;45.80;;;;;;4969936;28;45613;-62
2022/05/15 07:02:20;;;;;;;0.90;0.80;;;26.90;45.80;;;;;;4947236;28;46378;-62
2022/05/15 07:04:46;;;;;;;0.88;0.55;;;26.90;45.70;;;;;;4955024;28;45209;-63
2022/05/15 07:07:11;;;;;;;0.82;0.50;;;26.90;45.70;;;;;;4949785;28;45370;-63
2022/05/15 07:09:37;;;;;;;0.80;0.60;;;26.90;45.70;;;;;;4970871;28;45675;-63
2022/05/15 07:12:03;;;;;;;0.60;0.60;;;26.90;45.70;;;;;;4955424;28;47156;-64
2022/05/15 07:14:29;;;;;;;1.20;0.85;;;26.90;45.80;;;;;;4976039;28;44841;-62
2022/05/15 07:16:55;;;;;;;0.80;0.60;;;26.90;45.80;;;;;;4951472;28;45331;-62
2022/05/15 07:19:21;;;;;;;1.60;0.40;;;26.90;45.70;;;;;;4945912;28;45429;-62
2022/05/15 07:21:46;;;;;;;0.60;0.50;;;26.90;45.70;;;;;;4971377;28;45673;-62
2022/05/15 07:24:12;;;;;;;0.68;0.65;;;26.90;45.80;;;;;;4953214;28;45094;-62
2022/05/15 07:26:44;;;;;;;1.42;0.50;;;26.90;45.80;;;;;;4970884;28;45517;-62
2022/05/15 07:29:09;;;;;;;0.60;0.60;;;26.90;45.70;;;;;;4952314;28;45156;-62
2022/05/15 07:31:35;;;;;;;0.57;0.57;;;26.90;45.70;;;;;;4947254;28;45646;-62
2022/05/15 07:34:00;;;;;;;0.50;0.50;;;26.90;45.60;;;;;;4948423;28;45459;-62
2022/05/15 07:36:26;;;;;;;0.75;0.60;;;27.00;45.70;;;;;;4971415;28;45376;-63
2022/05/15 07:38:51;;;;;;;0.50;0.50;;;27.00;45.60;;;;;;4933284;28;44991;-63
2022/05/15 07:41:17;;;;;;;0.73;0.73;;;27.00;45.50;;;;;;4944985;28;46359;-63
2022/05/15 07:43:43;;;;;;;0.93;0.68;;;27.00;45.50;;;;;;4965062;28;45246;-62
2022/05/15 07:46:09;;;;;;;1.52;0.50;;;27.00;45.50;;;;;;4971060;28;45621;-62
2022/05/15 07:48:34;;;;;;;0.68;0.63;;;27.10;45.50;;;;;;4949270;28;45523;-62
2022/05/15 07:51:00;;;;;;;0.77;0.60;;;27.10;45.50;;;;;;4951272;28;46823;-62
2022/05/15 07:53:26;;;;;;;0.50;0.50;;;27.10;45.50;;;;;;4971502;28;45595;-62
2022/05/15 07:55:53;;;;;;;0.60;0.60;;;27.10;45.50;;;;;;4954302;28;45236;-62
2022/05/15 07:58:19;;;;;;;0.70;0.70;;;27.10;45.50;;;;;;4955645;28;45409;-63
2022/05/15 08:00:45;;;;;;;0.70;0.70;;;27.00;45.40;;;;;;4959545;28;46571;-62
2022/05/15 08:03:11;;;;;;;0.60;0.60;;;27.10;45.60;;;;;;4967322;28;44715;-63
2022/05/15 08:08:21;;;;;;;0.50;0.50;;;27.10;45.40;;;;;;4956640;28;45490;-62
2022/05/15 08:10:47;;;;;;;0.88;0.65;;;27.10;45.40;;;;;;4946596;28;47008;-62
2022/05/15 08:13:16;;;;;;;0.52;0.52;;;27.10;45.40;;;;;;4970629;28;45598;-63
2022/05/15 08:15:41;;;;;;;1.15;0.77;;;27.10;45.40;;;;;;4969428;28;45560;-63
2022/05/15 08:23:41;;;;;;;0.68;0.57;;;27.10;45.40;;;;;;4957346;28;44734;-63
2022/05/15 08:26:07;;;;;;;0.50;0.50;;;27.20;45.50;;;;;;4952155;28;45281;-61
2022/05/15 08:28:33;;;;;;;0.63;0.57;;;27.10;45.30;;;;;;4958634;28;45487;-63
2022/05/15 08:30:59;;;;;;;0.70;0.60;;;27.10;45.30;;;;;;4947957;28;46863;-62
2022/05/15 08:33:26;;;;;;;0.60;0.60;;;27.20;45.40;;;;;;4972747;28;44802;-63
2022/05/15 08:35:52;;;;;;;0.68;0.68;;;27.20;45.30;;;;;;4956752;28;45566;-62
2022/05/15 08:38:18;;;;;;;0.60;0.60;;;27.20;45.30;;;;;;4971346;28;45267;-63
2022/05/15 08:40:57;;;;;;;0.57;0.57;;;27.20;45.30;;;;;;4955364;28;46029;-63
2022/05/15 08:43:26;;;;;;;1.90;0.70;;;27.20;45.30;;;;;;4957582;28;45035;-62
2022/05/15 08:46:04;;;;;;;0.52;0.50;;;27.20;45.30;;;;;;4957445;28;44750;-63
2022/05/15 08:48:31;;;;;;;0.50;0.50;;;27.30;45.30;;;;;;4956609;28;45271;-63
2022/05/15 08:50:59;;;;;;;0.60;0.60;;;27.30;45.30;;;;;;4953769;28;46204;-63
2022/05/15 08:53:30;;;;;;;0.68;0.60;;;27.20;45.30;;;;;;4955542;28;45288;-62
2022/05/15 08:55:57;;;;;;;0.65;0.60;;;27.30;45.30;;;;;;4952930;28;45398;-62
2022/05/15 08:58:51;;;;;;;0.70;0.70;;;27.20;45.30;;;;;;4957849;28;45219;-62
2022/05/15 09:01:26;;;;;;;0.60;0.60;;;27.30;45.20;;;;;;4936812;28;46302;-63
2022/05/15 09:03:52;;;;;;;1.08;0.68;;;27.30;45.30;;;;;;4950220;28;45342;-63
2022/05/15 09:06:36;;;;;;;1.35;0.70;;;27.30;45.20;;;;;;4976263;28;45445;-63
2022/05/15 09:09:39;;;;;;;0.63;0.60;;;27.30;45.20;;;;;;4953642;28;44878;-63
2022/05/15 09:12:05;;;;;;;0.80;0.60;;;27.30;45.10;;;;;;4960920;28;46177;-63
2022/05/15 09:14:45;;;;;;;0.98;0.70;;;27.30;45.20;;;;;;4972642;28;45568;-63
2022/05/15 09:17:32;;;;;;;5.95;0.80;;;27.30;45.10;;;;;;4963322;28;44852;-63
2022/05/15 09:20:00;;;;;;;0.63;0.60;;;27.40;45.10;;;;;;4969062;28;45197;-63
2022/05/15 09:22:28;;;;;;;3.60;0.80;;;27.40;45.10;;;;;;4967155;28;46520;-63
2022/05/15 09:24:53;;;;;;;1.48;0.60;;;27.40;45.10;;;;;;4951364;28;45703;-63
2022/05/15 09:27:26;;;;;;;0.52;0.52;;;27.40;45.20;;;;;;4962243;28;45503;-61
2022/05/15 09:30:00;;;;;;;0.95;0.70;;;27.40;45.20;;;;;;4923575;28;45033;-63
2022/05/15 09:32:40;;;;;;;0.80;0.70;;;27.40;45.10;;;;;;4928447;28;46563;-63
2022/05/15 09:35:25;;;;;;;2.08;0.70;;;27.40;45.10;;;;;;4944752;28;45272;-62
2022/05/15 09:43:35;;;;;;;0.93;0.85;;;27.50;45.10;;;;;;4934083;28;46672;-63
2022/05/15 09:46:18;;;;;;;3.25;0.60;;;27.40;45.00;;;;;;4928040;28;45245;-62
2022/05/15 09:49:03;;;;;;;0.50;0.50;;;27.50;45.00;;;;;;4940876;28;45591;-63
2022/05/15 09:51:29;;;;;;;0.60;0.60;;;27.50;45.10;;;;;;4960167;28;45512;-62
2022/05/15 09:53:56;;;;;;;1.58;0.52;;;27.50;45.20;;;;;;4960221;28;45243;-62
2022/05/15 09:56:24;;;;;;;0.70;0.57;;;27.40;45.10;;;;;;4933046;28;45249;-63
2022/05/15 09:59:05;;;;;;;2.03;0.60;;;27.40;45.10;;;;;;4964166;28;45234;-63
2022/05/15 10:01:34;;;;;;;2.25;0.50;;;27.40;45.00;;;;;;4956918;28;45565;-63
2022/05/15 10:04:00;;;;;;;0.68;0.60;;;27.40;45.10;;;;;;4935231;28;46682;-63
2022/05/15 10:06:31;;;;;;;1.10;0.68;;;27.50;45.20;;;;;;4943087;28;44993;-63
2022/05/15 10:09:07;;;;;;;1.92;0.70;;;27.50;45.10;;;;;;4940889;28;45684;-63
2022/05/15 10:11:33;;;;;;;0.82;0.73;;;27.50;45.00;;;;;;4941581;28;45666;-62
2022/05/15 10:13:58;;;;;;;0.73;0.47;;;27.50;45.10;;;;;;4925230;28;45593;-62
2022/05/15 10:16:31;;;;;;;0.57;0.57;;;27.50;45.10;;;;;;4960115;28;45404;-62
2022/05/15 10:19:32;;;;;;;0.50;0.50;;;27.50;45.70;;;;;;4930538;28;45575;-62
2022/05/15 10:22:32;;;;;;;2.78;0.90;;;27.50;44.90;;;;;;4961835;28;45419;-61
2022/05/15 10:25:16;;;;;;;0.75;0.50;;;27.50;44.90;;;;;;4959917;28;45552;-62
2022/05/15 10:27:49;;;;;;;0.85;0.70;;;27.60;45.10;;;;;;4951646;28;45022;-63
2022/05/15 10:30:25;;;;;;;;;;;27.50;45.00;;;;;;4945563;28;45489;-61
2022/05/15 10:33:06;;;;;;;0.85;0.60;;;27.50;44.90;;;;;;4944845;28;45604;-61
2022/05/15 10:35:53;;;;;;;0.60;0.50;;;27.60;45.00;;;;;;4928098;28;45409;-61
2022/05/15 10:38:40;;;;;;;0.40;0.40;;;27.60;44.90;;;;;;4963531;28;45263;-62
2022/05/15 10:41:19;;;;;;;1.08;0.65;;;27.60;44.90;;;;;;4945160;28;45715;-61
2022/05/15 10:44:13;;;;;;;0.60;0.60;;;27.50;44.90;;;;;;4946424;28;45559;-61
2022/05/15 10:46:46;;;;;;;0.80;0.45;;;27.60;45.00;;;;;;4947142;28;46541;-61
2022/05/15 10:49:44;;;;;;;1.02;0.50;;;27.60;45.00;;;;;;4944435;28;45659;-61
2022/05/15 10:53:00;;;;;;;1.00;0.68;;;27.60;44.90;;;;;;4961553;28;45384;-62
2022/05/15 10:58:56;;;;;;;0.63;0.47;;;27.60;44.90;;;;;;4933636;28;45340;-62
2022/05/15 11:01:28;;;;;;;0.40;0.40;;;27.60;44.80;;;;;;4959317;28;45539;-62
2022/05/15 11:04:00;;;;;;;0.65;0.60;;;27.60;44.90;;;;;;4938482;28;45206;-61
2022/05/15 11:06:31;;;;;;;0.93;0.70;;;27.60;44.80;;;;;;4939784;28;45566;-61
2022/05/15 11:09:16;;;;;;;0.85;0.70;;;27.60;44.90;;;;;;4940719;28;45613;-61
2022/05/15 11:11:44;;;;;;;0.50;0.50;;;27.60;44.90;;;;;;4941186;28;44717;-61
2022/05/15 11:14:34;;;;;;;0.88;0.50;;;27.70;44.90;;;;;;4959797;28;45299;-62
2022/05/15 11:17:15;;;;;;;0.80;0.60;;;27.60;44.60;;;;;;4939221;28;45610;-62
2022/05/15 11:19:42;;;;;;;1.55;0.68;;;27.60;44.70;;;;;;4959903;28;45709;-62
2022/05/15 11:22:44;;;;;;;1.08;0.70;;;27.70;44.90;;;;;;4935412;28;45661;-62
2022/05/15 11:25:23;;;;;;;2.15;0.70;;;27.70;44.70;;;;;;4885046;28;45549;-61
2022/05/15 11:27:55;;;;;;;0.60;0.57;;;27.70;44.70;;;;;;4942007;28;45761;-62
2022/05/15 11:30:27;;;;;;;1.47;0.70;;;27.70;44.60;;;;;;4940178;28;45472;-61
2022/05/15 11:32:52;;;;;;;0.75;0.70;;;27.70;44.60;;;;;;4954863;28;45465;-62
2022/05/15 11:35:18;;;;;;;0.70;0.60;;;27.70;44.60;;;;;;4959391;28;45568;-62
2022/05/15 11:37:57;;;;;;;0.77;0.70;;;27.70;44.60;;;;;;4960378;28;45804;-61
2022/05/15 11:40:36;;;;;;;1.08;0.60;;;27.80;44.60;;;;;;4932099;28;45887;-61
2022/05/15 11:43:27;;;;;;;2.53;0.50;;;27.70;44.40;;;;;;4961601;28;44737;-62
2022/05/15 11:45:59;;;;;;;2.67;0.80;;;27.80;44.40;;;;;;4961409;28;45154;-62
2022/05/15 11:48:31;;;;;;;1.27;0.73;;;27.80;44.50;;;;;;4932465;28;45261;-62
2022/05/15 11:51:20;;;;;;;0.88;0.70;;;27.80;44.50;;;;;;4942074;28;48022;-61
2022/05/15 11:53:46;;;;;;;2.47;0.70;;;27.80;44.50;;;;;;4942566;28;45134;-62
2022/05/15 11:56:30;;;;;;;0.73;0.73;;;27.80;44.60;;;;;;4958887;28;45258;-62
2022/05/15 11:58:59;;;;;;;1.75;0.90;;;27.80;44.50;;;;;;4955346;28;45301;-63
2022/05/15 12:01:25;;;;;;;0.90;0.63;;;27.80;44.50;;;;;;4937092;28;47801;-62
2022/05/15 12:04:03;;;;;;;0.52;0.52;;;27.80;44.50;;;;;;4958646;28;45555;-62
2022/05/15 12:06:31;;;;;;;0.93;0.57;;;27.80;44.50;;;;;;4942056;28;45738;-62
2022/05/15 12:09:15;;;;;;;1.33;0.75;;;27.80;44.50;;;;;;4941721;28;45747;-62
2022/05/15 12:11:41;;;;;;;0.75;0.65;;;27.80;44.30;;;;;;4958916;28;45900;-62
2022/05/15 12:14:25;;;;;;;1.40;0.60;;;27.80;44.40;;;;;;4923120;28;45389;-62
2022/05/15 12:16:58;;;;;;;0.82;0.50;;;27.80;44.20;;;;;;4940518;28;45961;-62
2022/05/15 12:19:25;;;;;;;0.70;0.70;;;27.80;44.40;;;;;;4946287;28;45262;-62
2022/05/15 12:21:52;;;;;;;1.02;0.70;;;27.80;44.40;;;;;;4957345;28;46038;-67
2022/05/15 12:24:27;;;;;;;0.70;0.60;;;27.80;44.40;;;;;;4941534;28;45371;-62
2022/05/15 12:27:19;;;;;;;3.70;0.57;;;27.90;44.40;;;;;;4948455;28;45249;-63
2022/05/15 12:29:57;;;;;;;0.90;0.60;;;27.90;44.20;;;;;;4942027;28;45405;-62
2022/05/15 12:32:36;;;;;;;0.80;0.70;;;27.80;44.20;;;;;;4959467;28;46020;-62
2022/05/15 12:35:23;;;;;;;0.70;0.70;;;27.80;44.20;;;;;;4941229;28;45655;-62
2022/05/15 12:37:53;;;;;;;0.50;0.50;;;27.80;44.30;;;;;;4960658;28;45097;-62
2022/05/15 12:40:26;;;;;;;1.10;0.63;;;27.90;44.30;;;;;;4955746;28;45213;-62
2022/05/15 12:42:53;;;;;;;0.80;0.70;;;27.90;44.30;;;;;;4940320;28;46076;-62
2022/05/15 12:45:21;;;;;;;1.98;0.60;;;27.90;44.30;;;;;;4939714;28;46239;-62
2022/05/15 12:48:00;;;;;;;2.13;0.70;;;27.90;44.30;;;;;;4928120;28;45293;-62
2022/05/15 12:50:26;;;;;;;0.70;0.70;;;27.90;44.10;;;;;;4959056;28;45006;-62
2022/05/15 12:52:56;;;;;;;0.93;0.70;;;27.90;44.30;;;;;;4957385;28;46665;-61
2022/05/15 12:55:35;;;;;;;0.55;0.55;;;27.90;44.20;;;;;;4941239;28;45322;-62
2022/05/15 12:58:05;;;;;;;0.63;0.63;;;27.90;44.10;;;;;;4923677;28;45732;-62
2022/05/15 13:00:36;;;;;;;0.75;0.60;;;27.90;44.20;;;;;;4958388;28;45736;-62
2022/05/15 13:03:05;;;;;;;0.68;0.60;;;27.90;44.10;;;;;;4940942;28;45503;-62
2022/05/15 13:05:36;;;;;;;0.75;0.52;;;27.90;44.20;;;;;;4945256;28;45084;-62
2022/05/15 13:08:05;;;;;;;1.60;0.80;;;27.90;44.10;;;;;;4941113;28;45590;-62
2022/05/15 13:10:31;;;;;;;0.65;0.63;;;27.90;44.20;;;;;;4942939;28;45949;-62
2022/05/15 13:13:10;;;;;;;0.75;0.47;;;27.90;44.20;;;;;;4960810;28;47236;-62
2022/05/15 13:15:36;;;;;;;1.08;0.88;;;27.90;44.80;;;;;;4960770;28;45756;-62
2022/05/15 13:18:04;;;;;;;0.85;0.60;;;27.90;44.10;;;;;;4941037;28;45150;-62
2022/05/15 13:20:30;;;;;;;1.52;0.80;;;27.90;44.10;;;;;;4941954;28;45526;-62
2022/05/15 13:22:59;;;;;;;0.70;0.70;;;27.90;44.20;;;;;;4927723;28;45553;-62
2022/05/15 13:25:37;;;;;;;1.38;0.80;;;28.00;44.20;;;;;;4943313;28;45694;-62
2022/05/15 13:28:03;;;;;;;1.35;0.80;;;27.90;44.10;;;;;;4929198;28;45072;-62
2022/05/15 13:30:31;;;;;;;1.02;0.80;;;27.90;44.20;;;;;;4945577;28;44763;-62
2022/05/15 13:33:22;;;;;;;0.85;0.75;;;28.00;44.20;;;;;;4945119;28;45617;-62
2022/05/15 13:35:52;;;;;;;0.80;0.60;;;27.90;44.10;;;;;;4942823;28;44779;-62
2022/05/15 13:44:05;;;;;;;1.42;0.55;;;27.90;44.20;;;;;;4934054;28;45506;-62
2022/05/15 13:46:32;;;;;;;0.60;0.60;;;27.90;44.20;;;;;;4944795;28;45261;-62
2022/05/15 13:48:58;;;;;;;0.70;0.55;;;27.90;44.30;;;;;;4931956;28;45520;-62
2022/05/15 13:51:41;;;;;;;0.80;0.70;;;27.90;44.30;;;;;;4945830;28;46163;-66
2022/05/15 13:54:28;;;;;;;1.30;0.70;;;27.90;44.30;;;;;;4960266;28;45409;-62
2022/05/15 13:57:00;;;;;;;0.85;0.85;;;27.90;44.20;;;;;;4945128;28;45327;-62
2022/05/15 13:59:34;;;;;;;0.63;0.60;;;27.90;44.20;;;;;;4960424;28;45209;-62
2022/05/15 14:02:24;;;;;;;0.80;0.80;;;27.90;44.30;;;;;;4942400;28;44889;-62
2022/05/15 14:05:10;;;;;;;1.55;0.70;;;28.00;44.20;;;;;;4910881;28;46721;-62
2022/05/15 14:07:40;;;;;;;1.13;0.80;;;27.90;44.30;;;;;;4956879;28;45484;-62
2022/05/15 14:10:16;;;;;;;0.95;0.70;;;27.90;44.90;;;;;;4931317;28;45261;-62
2022/05/15 14:12:53;;;;;;;1.08;0.70;;;27.90;44.20;;;;;;4960653;28;45499;-62
2022/05/15 14:15:44;;;;;;;2.15;0.60;;;27.90;44.20;;;;;;4960041;28;45442;-62
2022/05/15 14:18:19;;;;;;;0.60;0.60;;;27.90;44.20;;;;;;4960805;28;45103;-62
2022/05/15 14:20:47;;;;;;;0.60;0.60;;;27.90;44.30;;;;;;4945276;28;45672;-62
2022/05/15 14:23:13;;;;;;;0.52;0.52;;;27.90;44.30;;;;;;4928936;28;45551;-62
2022/05/15 14:25:40;;;;;;;1.02;0.80;;;27.90;44.20;;;;;;4942514;28;46548;-62
2022/05/15 14:28:06;;;;;;;1.52;0.95;;;27.90;44.30;;;;;;4924219;28;45520;-62
2022/05/15 14:30:31;;;;;;;0.70;0.70;;;27.90;44.20;;;;;;4929884;28;46482;-62
2022/05/15 14:32:59;;;;;;;0.52;0.52;;;28.00;44.30;;;;;;4926869;28;45115;-62
2022/05/15 14:35:28;;;;;;;1.17;0.80;;;27.90;44.20;;;;;;4928583;28;46544;-61
2022/05/15 14:37:54;;;;;;;0.82;0.70;;;27.90;44.20;;;;;;4927303;28;45814;-62
2022/05/15 14:40:20;;;;;;;1.20;0.88;;;27.90;44.20;;;;;;4908972;28;45510;-62
2022/05/15 14:42:46;;;;;;;0.63;0.60;;;27.90;44.20;;;;;;4943152;28;45298;-62
2022/05/15 14:45:17;;;;;;;0.82;0.70;;;27.90;44.20;;;;;;4925091;28;46470;-62
2022/05/15 14:47:49;;;;;;;0.55;0.52;;;28.00;44.30;;;;;;4949715;28;45135;-62
2022/05/15 14:50:15;;;;;;;0.70;0.70;;;27.90;44.30;;;;;;4941232;28;45544;-62
2022/05/15 14:52:40;;;;;;;0.60;0.60;;;27.90;44.30;;;;;;4927893;28;45363;-62
2022/05/15 14:55:06;;;;;;;0.88;0.82;;;27.90;44.20;;;;;;4911533;28;48742;-62
2022/05/15 14:57:32;;;;;;;1.35;0.70;;;27.90;44.20;;;;;;4942627;28;45032;-62
2022/05/15 14:59:58;;;;;;;0.68;0.68;;;27.90;44.20;;;;;;4924683;28;45005;-62
2022/05/15 15:02:24;;;;;;;1.75;0.70;;;27.90;44.20;;;;;;4925175;28;45260;-62
2022/05/15 15:04:50;;;;;;;1.05;0.60;;;27.90;44.30;;;;;;4961083;28;46830;-62
2022/05/15 15:07:15;;;;;;;0.82;0.65;;;27.90;44.30;;;;;;4961019;28;45560;-62
2022/05/15 15:09:41;;;;;;;1.75;0.90;;;27.90;44.30;;;;;;4944784;28;45603;-62
2022/05/15 15:12:07;;;;;;;1.23;0.70;;;27.90;44.30;;;;;;4959534;28;45596;-62
2022/05/15 15:14:33;;;;;;;0.98;0.73;;;27.90;44.30;;;;;;4943546;28;45346;-62
2022/05/15 15:16:59;;;;;;;0.50;0.50;;;27.90;44.30;;;;;;4929261;28;46274;-63
2022/05/15 15:19:26;;;;;;;0.85;0.75;;;27.90;44.30;;;;;;4922163;28;45882;-61
2022/05/15 15:21:52;;;;;;;0.65;0.60;;;27.90;44.30;;;;;;4936794;28;45684;-62
2022/05/15 15:24:18;;;;;;;0.80;0.70;;;27.90;44.30;;;;;;4939220;28;46529;-62
2022/05/15 15:26:44;;;;;;;0.70;0.70;;;27.90;44.30;;;;;;4957608;28;45405;-62
2022/05/15 15:29:11;;;;;;;0.70;0.70;;;27.90;44.40;;;;;;4942547;28;44776;-63
2022/05/15 15:31:37;;;;;;;0.75;0.75;;;27.90;44.30;;;;;;4943586;28;45115;-63
2022/05/15 15:34:06;;;;;;;0.80;0.60;;;27.90;44.40;;;;;;4940982;28;46240;-63
2022/05/15 15:36:32;;;;;;;0.85;0.77;;;27.90;44.40;;;;;;4927693;28;45350;-62
2022/05/15 15:38:58;;;;;;;1.65;0.80;;;27.90;44.40;;;;;;4943013;28;44952;-63
2022/05/15 15:41:24;;;;;;;0.63;0.63;;;27.90;44.40;;;;;;4961514;28;45731;-64
2022/05/15 15:43:52;;;;;;;1.52;0.80;;;27.90;44.40;;;;;;4926438;28;46958;-62
2022/05/15 15:46:18;;;;;;;0.88;0.75;;;27.90;44.40;;;;;;4926801;28;46800;-63
2022/05/15 15:48:44;;;;;;;0.60;0.60;;;27.90;44.40;;;;;;4944556;28;45374;-63
2022/05/15 15:51:30;;;;;;;1.02;0.90;;;27.90;44.40;;;;;;4960453;28;45567;-63
2022/05/15 15:53:58;;;;;;;0.77;0.77;;;27.90;44.30;;;;;;4954892;28;46899;-63
2022/05/15 15:56:25;;;;;;;0.70;0.70;;;27.90;45.00;;;;;;4939840;28;45733;-63
2022/05/15 15:58:52;;;;;;;0.70;0.70;;;27.90;44.40;;;;;;4939424;28;45678;-62
2022/05/15 16:01:19;;;;;;;1.02;0.80;;;27.90;44.40;;;;;;4927978;28;45604;-62
2022/05/15 16:03:45;;;;;;;2.75;0.88;;;27.90;44.40;;;;;;4928081;28;45679;-62
2022/05/15 16:06:11;;;;;;;1.00;0.90;;;27.90;44.40;;;;;;4944691;28;45089;-62
2022/05/15 16:08:36;;;;;;;0.68;0.63;;;27.90;44.40;;;;;;4961598;28;46110;-63
2022/05/15 16:11:02;;;;;;;1.15;0.95;;;27.90;44.40;;;;;;4959619;28;45149;-64
2022/05/15 16:13:28;;;;;;;1.02;0.70;;;27.80;44.30;;;;;;4926898;28;45826;-62
2022/05/15 16:15:53;;;;;;;2.53;1.00;;;27.90;44.40;;;;;;4960907;28;45125;-62
2022/05/15 16:18:19;;;;;;;0.80;0.77;;;27.80;44.40;;;;;;4940992;28;45460;-66
2022/05/15 16:20:50;;;;;;;0.70;0.70;;;27.90;44.40;;;;;;4958783;28;45379;-63
2022/05/15 16:23:17;;;;;;;1.02;0.80;;;27.90;44.50;;;;;;4943599;28;45556;-63
2022/05/15 16:25:43;;;;;;;0.88;0.88;;;27.80;44.40;;;;;;4939003;28;45353;-62
2022/05/15 16:28:09;;;;;;;1.05;0.80;;;27.80;44.40;;;;;;4937204;28;45251;-63